Time;durP1;ratioP1;P1;durP2;ratioP2;P2;SDS_P1;SDS_P2;PMS_P1;PMS_P2;Temp;Humidity;BMP_temperature;BMP_pressure;BME280_temperature;BME280_humidity;BME280_pressure;Samples;Min_cycle;Max_cycle;Signal;HPM_P1;HPM_P2
2022/08/24 00:00:52;;;;;;;29.52;26.52;;;20.70;99.90;;;;;;5069701;28;20036;-48
2022/08/24 00:03:17;;;;;;;;;;;20.60;99.90;;;;;;5069684;28;20497;-48
2022/08/24 00:05:43;;;;;;;24.00;21.67;;;20.60;99.90;;;;;;5069935;28;19936;-48
2022/08/24 00:08:08;;;;;;;;;;;20.60;99.90;;;;;;5069947;28;20119;-48
2022/08/24 00:10:34;;;;;;;25.85;23.35;;;20.60;99.90;;;;;;5070124;28;19974;-48
2022/08/24 00:13:00;;;;;;;;;;;20.50;99.90;;;;;;5069591;28;20044;-48
2022/08/24 00:15:25;;;;;;;28.55;25.70;;;20.50;99.90;;;;;;5069593;28;20014;-50
2022/08/24 00:17:51;;;;;;;;;;;20.50;99.90;;;;;;5070117;28;20041;-48
2022/08/24 00:20:16;;;;;;;29.25;26.38;;;20.50;99.90;;;;;;5069592;28;19924;-47
2022/08/24 00:22:42;;;;;;;;;;;20.50;99.90;;;;;;5070082;28;20101;-50
2022/08/24 00:25:10;;;;;;;30.55;27.65;;;20.50;99.90;;;;;;5069779;28;20299;-48
2022/08/24 00:27:35;;;;;;;32.67;29.38;;;20.40;99.90;;;;;;5069271;28;20047;-47
2022/08/24 00:30:04;;;;;;;;;;;20.40;99.90;;;;;;5073096;28;20037;-48
2022/08/24 00:32:30;;;;;;;29.95;27.15;;;20.50;99.90;;;;;;5073323;28;20293;-48
2022/08/24 00:34:55;;;;;;;;;;;20.50;99.90;;;;;;5073420;28;20036;-47
2022/08/24 00:37:21;;;;;;;31.58;28.58;;;20.40;99.90;;;;;;5073686;28;19984;-48
2022/08/24 00:39:46;;;;;;;;;;;20.40;99.90;;;;;;5073772;28;20101;-48
2022/08/24 00:42:12;;;;;;;24.52;22.30;;;20.30;99.90;;;;;;5072998;28;20002;-48
2022/08/24 00:44:37;;;;;;;;;;;20.10;99.90;;;;;;5073342;28;20041;-47
2022/08/24 00:47:24;;;;;;;31.65;28.70;;;20.00;99.90;;;;;;5073016;28;20374;-48
2022/08/24 00:49:58;;;;;;;37.05;33.38;;;20.00;99.90;;;;;;5053769;28;20077;-47
2022/08/24 00:52:28;;;;;;;37.55;33.85;;;19.90;99.90;;;;;;5071904;28;20028;-47
2022/08/24 00:55:07;;;;;;;36.42;33.13;;;19.90;99.90;;;;;;5072196;28;20055;-47
2022/08/24 00:57:38;;;;;;;34.67;31.25;;;19.90;99.90;;;;;;5070929;28;20094;-49
2022/08/24 01:00:13;;;;;;;35.60;32.10;;;19.90;99.90;;;;;;5071440;28;20040;-48
2022/08/24 01:02:42;;;;;;;33.33;29.80;;;19.80;99.90;;;;;;5073225;28;20072;-47
2022/08/24 01:05:10;;;;;;;44.95;28.80;;;19.80;99.90;;;;;;5072275;28;20060;-48
2022/08/24 01:07:37;;;;;;;45.35;41.05;;;19.80;99.90;;;;;;5072796;28;20063;-47
2022/08/24 01:10:09;;;;;;;36.80;33.35;;;19.80;99.90;;;;;;5072836;28;20037;-48
2022/08/24 01:12:36;;;;;;;36.50;33.15;;;19.80;99.90;;;;;;5072457;28;20493;-47
2022/08/24 01:15:05;;;;;;;32.55;29.77;;;19.80;99.90;;;;;;5072275;28;20029;-47
2022/08/24 01:20:16;;;;;;;51.83;46.35;;;19.70;99.90;;;;;;5072704;28;20048;-48
2022/08/24 01:22:58;;;;;;;48.28;43.65;;;19.60;99.90;;;;;;5072728;28;20036;-48
2022/08/24 01:25:26;;;;;;;36.00;32.78;;;19.50;99.90;;;;;;5072506;28;20077;-49
2022/08/24 01:27:58;;;;;;;38.25;34.47;;;19.40;99.90;;;;;;5052406;28;20047;-48
2022/08/24 01:30:25;;;;;;;38.97;35.30;;;19.40;99.90;;;;;;5066237;28;20097;-48
2022/08/24 01:32:56;;;;;;;37.65;34.22;;;19.30;99.90;;;;;;5072296;28;20538;-48
2022/08/24 01:35:22;;;;;;;39.63;36.03;;;19.40;99.90;;;;;;5072276;28;20036;-48
2022/08/24 01:37:49;;;;;;;39.33;35.28;;;19.40;99.90;;;;;;5071968;28;20115;-49
2022/08/24 01:40:17;;;;;;;37.17;33.72;;;19.30;99.90;;;;;;5071348;28;20076;-47
2022/08/24 01:42:51;;;;;;;37.88;34.40;;;19.30;99.90;;;;;;5071920;28;20370;-48
2022/08/24 01:45:18;;;;;;;36.97;33.38;;;19.40;99.90;;;;;;5071918;28;20029;-47
2022/08/24 01:47:44;;;;;;;48.15;32.92;;;19.40;99.90;;;;;;5071608;28;20040;-48
2022/08/24 01:50:10;;;;;;;67.43;35.80;;;19.40;99.90;;;;;;5071864;28;20471;-48
2022/08/24 01:52:38;;;;;;;44.90;35.10;;;19.40;99.90;;;;;;5072003;28;20043;-48
2022/08/24 01:55:09;;;;;;;34.13;30.75;;;19.30;99.90;;;;;;5070965;28;20036;-48
2022/08/24 01:57:34;;;;;;;26.10;24.00;;;19.20;99.90;;;;;;5071643;28;20047;-47
2022/08/24 02:00:01;;;;;;;30.20;27.65;;;19.10;99.90;;;;;;5071789;28;20127;-48
2022/08/24 02:02:29;;;;;;;32.50;29.30;;;19.10;99.90;;;;;;5071902;28;20055;-48
2022/08/24 02:04:55;;;;;;;24.60;22.50;;;19.10;99.90;;;;;;5071563;28;20115;-48
2022/08/24 02:07:21;;;;;;;18.58;17.00;;;19.10;99.90;;;;;;5071519;28;20558;-47
2022/08/24 02:09:47;;;;;;;23.33;21.38;;;19.20;99.90;;;;;;5070903;28;20116;-48
2022/08/24 02:12:13;;;;;;;25.95;23.50;;;19.10;99.90;;;;;;5061731;28;20124;-48
2022/08/24 02:14:38;;;;;;;26.98;24.73;;;19.10;99.90;;;;;;5071345;28;20036;-47
2022/08/24 02:17:05;;;;;;;27.15;24.83;;;19.20;99.90;;;;;;5071326;28;20562;-47
2022/08/24 02:19:31;;;;;;;25.52;23.33;;;19.20;99.90;;;;;;5071510;28;20036;-47
2022/08/24 02:21:58;;;;;;;24.13;22.15;;;19.20;99.90;;;;;;5071157;28;20055;-47
2022/08/24 02:24:24;;;;;;;23.52;21.52;;;19.30;99.90;;;;;;5070812;28;20040;-48
2022/08/24 02:26:49;;;;;;;23.08;21.00;;;19.20;99.90;;;;;;5071190;28;20119;-47
2022/08/24 02:29:16;;;;;;;21.25;19.35;;;19.20;99.90;;;;;;5071990;28;20036;-47
2022/08/24 02:31:42;;;;;;;20.63;18.92;;;19.20;99.90;;;;;;5071085;28;20097;-47
2022/08/24 02:34:08;;;;;;;19.70;18.13;;;19.10;99.90;;;;;;5071410;28;20131;-48
2022/08/24 02:36:33;;;;;;;;;;;19.20;99.90;;;;;;5070940;28;20115;-48
2022/08/24 02:38:59;;;;;;;18.02;16.42;;;19.10;99.90;;;;;;5069806;28;19928;-47
2022/08/24 02:41:25;;;;;;;19.05;17.65;;;19.00;99.90;;;;;;5070697;28;20109;-47
2022/08/24 02:43:53;;;;;;;24.35;21.88;;;19.00;99.90;;;;;;5070267;28;20494;-47
2022/08/24 02:46:28;;;;;;;21.17;19.30;;;18.90;99.90;;;;;;5070538;28;20544;-46
2022/08/24 02:48:54;;;;;;;15.50;14.43;;;18.80;99.90;;;;;;5070997;28;20036;-47
2022/08/24 02:51:26;;;;;;;15.60;14.55;;;18.70;99.90;;;;;;5070291;28;20043;-46
2022/08/24 02:53:52;;;;;;;100.53;20.75;;;18.70;99.90;;;;;;5070442;28;20115;-47
2022/08/24 02:56:19;;;;;;;18.08;16.45;;;18.60;99.90;;;;;;5070717;28;20032;-48
2022/08/24 02:58:45;;;;;;;16.55;15.38;;;18.60;99.90;;;;;;5070772;28;20040;-47
2022/08/24 03:01:12;;;;;;;17.73;16.33;;;18.50;99.90;;;;;;5070474;28;20404;-48
2022/08/24 03:03:38;;;;;;;18.92;17.55;;;18.50;99.90;;;;;;5070255;28;20091;-48
2022/08/24 03:06:05;;;;;;;17.90;16.60;;;18.50;99.90;;;;;;5069650;28;20040;-47
2022/08/24 03:08:30;;;;;;;25.00;23.00;;;18.50;99.90;;;;;;5070522;28;20323;-47
2022/08/24 03:10:59;;;;;;;100.60;29.45;;;18.50;99.90;;;;;;5070523;28;20081;-48
2022/08/24 03:13:26;;;;;;;48.72;28.00;;;18.50;99.90;;;;;;5062661;28;20107;-47
2022/08/24 03:15:53;;;;;;;23.85;21.90;;;18.30;99.90;;;;;;5070116;28;20051;-47
2022/08/24 03:18:18;;;;;;;29.42;26.90;;;18.20;99.90;;;;;;5070089;28;20197;-48
2022/08/24 03:20:44;;;;;;;26.98;24.88;;;18.20;99.90;;;;;;5070094;28;20663;-49
2022/08/24 03:23:10;;;;;;;24.02;22.08;;;18.10;99.90;;;;;;5069713;28;20040;-46
2022/08/24 03:25:35;;;;;;;28.65;26.15;;;18.10;99.90;;;;;;5070258;28;20040;-49
2022/08/24 03:28:01;;;;;;;24.45;22.67;;;18.10;99.90;;;;;;5069923;28;20097;-47
2022/08/24 03:30:27;;;;;;;31.77;29.20;;;18.20;99.90;;;;;;5070207;28;20605;-47
2022/08/24 03:32:53;;;;;;;28.73;26.48;;;18.20;99.90;;;;;;5069614;28;20031;-47
2022/08/24 03:35:21;;;;;;;31.80;28.73;;;18.10;99.90;;;;;;5069555;28;20074;-47
2022/08/24 03:37:48;;;;;;;27.20;25.10;;;18.10;99.90;;;;;;5070071;28;20028;-47
2022/08/24 03:40:14;;;;;;;27.83;25.73;;;18.00;99.90;;;;;;5070099;28;20036;-48
2022/08/24 03:42:39;;;;;;;29.67;27.38;;;18.00;99.90;;;;;;5068878;28;20036;-47
2022/08/24 03:45:06;;;;;;;30.02;27.42;;;18.00;99.90;;;;;;5069350;28;20040;-47
2022/08/24 03:47:32;;;;;;;32.92;30.02;;;18.00;99.90;;;;;;5069824;28;20044;-48
2022/08/24 03:49:58;;;;;;;30.50;27.70;;;17.90;99.90;;;;;;5069767;28;20043;-48
2022/08/24 03:52:23;;;;;;;26.40;24.20;;;17.80;99.90;;;;;;5070327;28;20037;-46
2022/08/24 03:54:49;;;;;;;25.55;23.40;;;17.80;99.90;;;;;;5069275;28;20105;-47
2022/08/24 03:57:14;;;;;;;25.65;23.45;;;17.70;99.90;;;;;;5070109;28;20036;-48
2022/08/24 03:59:40;;;;;;;168.50;28.80;;;17.70;99.90;;;;;;5069617;28;20036;-48
2022/08/24 04:02:06;;;;;;;27.08;24.42;;;17.80;99.90;;;;;;5069843;28;20040;-47
2022/08/24 04:04:31;;;;;;;65.45;28.02;;;17.80;99.90;;;;;;5063925;28;20101;-47
2022/08/24 04:06:57;;;;;;;220.02;34.70;;;17.80;99.90;;;;;;5070157;28;20033;-47
2022/08/24 04:09:23;;;;;;;28.45;26.25;;;17.80;99.90;;;;;;5070120;28;20426;-47
2022/08/24 04:11:49;;;;;;;29.83;27.10;;;17.70;99.90;;;;;;5070000;28;20120;-48
2022/08/24 04:14:16;;;;;;;33.15;30.25;;;17.60;99.90;;;;;;5069788;28;20116;-48
2022/08/24 04:16:41;;;;;;;31.80;29.23;;;17.60;99.90;;;;;;5069655;28;20393;-47
2022/08/24 04:19:07;;;;;;;102.22;35.08;;;17.50;99.90;;;;;;5069881;28;20025;-49
2022/08/24 04:21:35;;;;;;;61.85;33.85;;;17.50;99.90;;;;;;5070022;28;20071;-47
2022/08/24 04:24:04;;;;;;;153.82;35.72;;;17.50;99.90;;;;;;5069657;28;20036;-47
2022/08/24 04:26:31;;;;;;;100.95;33.45;;;17.60;99.90;;;;;;5069287;28;20049;-47
2022/08/24 04:28:57;;;;;;;73.47;32.50;;;17.60;99.90;;;;;;5069665;28;20082;-47
2022/08/24 04:31:23;;;;;;;;;;;17.50;99.90;;;;;;5070110;28;20064;-48
2022/08/24 04:33:51;;;;;;;30.83;28.23;;;17.50;99.90;;;;;;5069193;28;19916;-47
2022/08/24 04:36:19;;;;;;;32.88;30.20;;;17.50;99.90;;;;;;5069603;28;20036;-46
2022/08/24 04:38:45;;;;;;;29.77;27.25;;;17.50;99.90;;;;;;5069539;28;20093;-47
2022/08/24 04:41:13;;;;;;;31.27;28.67;;;17.50;99.90;;;;;;5069940;28;20029;-47
2022/08/24 04:43:43;;;;;;;33.47;30.48;;;17.50;99.90;;;;;;5068670;28;20040;-47
2022/08/24 04:46:10;;;;;;;30.15;27.63;;;17.60;99.90;;;;;;5068834;28;20036;-48
2022/08/24 04:48:36;;;;;;;38.25;35.15;;;17.70;99.90;;;;;;5069027;28;20481;-48
2022/08/24 04:51:04;;;;;;;31.73;29.25;;;17.70;99.90;;;;;;5069649;28;20058;-47
2022/08/24 04:53:30;;;;;;;28.80;26.58;;;17.60;99.90;;;;;;5068859;28;20048;-47
2022/08/24 04:55:57;;;;;;;26.58;24.55;;;17.60;99.90;;;;;;5069197;28;20581;-47
2022/08/24 04:58:23;;;;;;;26.33;24.23;;;17.60;99.90;;;;;;5068935;28;20032;-47
2022/08/24 05:00:48;;;;;;;;;;;17.50;99.90;;;;;;5069892;28;20036;-47
2022/08/24 05:03:15;;;;;;;22.83;21.23;;;17.50;99.90;;;;;;5068982;28;19924;-47
2022/08/24 05:05:46;;;;;;;24.38;22.58;;;17.50;99.90;;;;;;5069099;28;20038;-47
2022/08/24 05:08:12;;;;;;;25.55;23.65;;;17.50;99.90;;;;;;5069435;28;20104;-47
2022/08/24 05:10:39;;;;;;;28.27;25.95;;;17.50;99.90;;;;;;5067316;28;20049;-47
2022/08/24 05:13:06;;;;;;;28.27;26.02;;;17.50;99.90;;;;;;5068730;28;20064;-47
2022/08/24 05:15:33;;;;;;;28.17;25.85;;;17.50;99.90;;;;;;5069323;28;20040;-47
2022/08/24 05:17:59;;;;;;;33.25;30.42;;;17.60;99.90;;;;;;5073025;28;20041;-47
2022/08/24 05:20:25;;;;;;;32.45;29.83;;;17.60;99.90;;;;;;5072516;28;20039;-47
2022/08/24 05:22:52;;;;;;;28.63;26.33;;;17.60;99.90;;;;;;5072457;28;20046;-47
2022/08/24 05:25:18;;;;;;;29.98;27.60;;;17.50;99.90;;;;;;5072037;28;20092;-49
2022/08/24 05:27:44;;;;;;;32.00;29.50;;;17.50;99.90;;;;;;5071701;28;20052;-47
2022/08/24 05:30:10;;;;;;;35.55;32.45;;;17.50;99.90;;;;;;5072361;28;20543;-48
2022/08/24 05:32:37;;;;;;;37.40;34.00;;;17.50;99.90;;;;;;5072339;28;20524;-47
2022/08/24 05:35:04;;;;;;;38.58;34.95;;;17.50;99.90;;;;;;5071306;28;20032;-47
2022/08/24 05:37:32;;;;;;;35.80;32.70;;;17.60;99.90;;;;;;5072958;28;20094;-48
2022/08/24 05:40:01;;;;;;;36.88;33.72;;;17.60;99.90;;;;;;5072136;28;20120;-47
2022/08/24 05:42:26;;;;;;;38.83;35.53;;;17.60;99.90;;;;;;5069740;28;20059;-47
2022/08/24 05:44:52;;;;;;;40.10;36.75;;;17.70;99.90;;;;;;5052383;28;20448;-48
2022/08/24 05:47:17;;;;;;;40.67;37.05;;;17.70;99.90;;;;;;5068755;28;20604;-47
2022/08/24 05:49:43;;;;;;;42.60;38.70;;;17.70;99.90;;;;;;5063072;28;20414;-47
2022/08/24 05:52:09;;;;;;;38.55;35.22;;;17.70;99.90;;;;;;5057960;28;20514;-47
2022/08/24 05:54:34;;;;;;;39.35;35.80;;;17.70;99.90;;;;;;5052814;28;20045;-46
2022/08/24 05:57:06;;;;;;;41.83;38.22;;;17.80;99.90;;;;;;5072235;28;20109;-48
2022/08/24 05:59:31;;;;;;;44.33;40.38;;;17.90;99.90;;;;;;5072706;28;20397;-47
2022/08/24 06:01:57;;;;;;;45.42;40.97;;;18.00;99.90;;;;;;5070639;28;20111;-47
2022/08/24 06:04:23;;;;;;;31.77;26.52;;;18.00;99.90;;;;;;5071770;28;20098;-48
2022/08/24 06:06:48;;;;;;;28.33;25.92;;;18.10;99.90;;;;;;5071642;28;20060;-48
2022/08/24 06:09:14;;;;;;;26.58;24.05;;;18.20;99.90;;;;;;5071996;28;20040;-48
2022/08/24 06:11:40;;;;;;;31.08;28.48;;;18.30;99.90;;;;;;5071255;28;20048;-48
2022/08/24 06:14:10;;;;;;;32.38;29.27;;;18.40;99.90;;;;;;5071253;28;20105;-47
2022/08/24 06:16:37;;;;;;;33.10;30.30;;;18.50;99.90;;;;;;5071239;28;20090;-48
2022/08/24 06:19:03;;;;;;;53.97;49.13;;;18.60;99.90;;;;;;5071575;28;20105;-47
2022/08/24 06:21:30;;;;;;;59.58;53.78;;;18.60;99.90;;;;;;5070875;28;20123;-47
2022/08/24 06:23:56;;;;;;;61.50;55.85;;;18.70;99.90;;;;;;5060104;28;20041;-47
2022/08/24 06:29:08;;;;;;;81.70;73.57;;;18.90;99.90;;;;;;5070972;28;20052;-47
2022/08/24 06:31:36;;;;;;;81.05;73.20;;;18.90;99.90;;;;;;5061198;28;20086;-47
2022/08/24 06:34:02;;;;;;;82.63;74.40;;;19.00;99.90;;;;;;5070953;28;20489;-48
2022/08/24 06:36:27;;;;;;;76.28;68.43;;;19.10;99.90;;;;;;5070948;28;20097;-47
2022/08/24 06:38:53;;;;;;;74.20;66.80;;;19.30;99.90;;;;;;5070671;28;20039;-49
2022/08/24 06:41:20;;;;;;;;;;;19.40;99.90;;;;;;5071784;28;20120;-47
2022/08/24 06:43:46;;;;;;;74.45;66.60;;;19.40;99.90;;;;;;5069997;28;20042;-47
2022/08/24 06:46:12;;;;;;;69.45;62.20;;;19.50;99.90;;;;;;5071357;28;20053;-47
2022/08/24 06:48:38;;;;;;;70.97;63.88;;;19.60;99.90;;;;;;5070938;28;20044;-47
2022/08/24 06:51:12;;;;;;;69.20;62.17;;;19.70;99.90;;;;;;5070774;28;20048;-48
2022/08/24 06:53:38;;;;;;;69.53;62.60;;;19.80;99.90;;;;;;5070868;28;20063;-47
2022/08/24 06:56:04;;;;;;;70.85;63.38;;;20.00;99.90;;;;;;5071044;28;20041;-48
2022/08/24 06:58:31;;;;;;;71.60;64.07;;;20.10;99.90;;;;;;5070959;28;20043;-48
2022/08/24 07:00:58;;;;;;;76.15;67.93;;;20.10;99.90;;;;;;5070951;28;20036;-47
2022/08/24 07:03:24;;;;;;;74.40;66.80;;;20.30;99.90;;;;;;5070415;28;20413;-47
2022/08/24 07:05:51;;;;;;;73.45;65.38;;;20.40;99.90;;;;;;5070776;28;20407;-47
2022/08/24 07:08:18;;;;;;;72.45;64.97;;;20.50;99.90;;;;;;5070898;28;20401;-47
2022/08/24 07:10:43;;;;;;;68.97;61.85;;;20.50;99.90;;;;;;5070846;28;20052;-47
2022/08/24 07:13:10;;;;;;;69.05;61.75;;;20.60;99.90;;;;;;5070403;28;20032;-47
2022/08/24 07:15:36;;;;;;;66.72;59.65;;;20.70;99.90;;;;;;5070551;28;20405;-47
2022/08/24 07:18:01;;;;;;;;;;;20.80;99.90;;;;;;5070450;28;20328;-47
2022/08/24 07:20:29;;;;;;;68.60;61.33;;;20.80;99.90;;;;;;5069998;28;19924;-47
2022/08/24 07:22:55;;;;;;;65.78;59.00;;;20.90;99.90;;;;;;5069842;28;20090;-46
2022/08/24 07:25:20;;;;;;;;;;;21.00;99.90;;;;;;5070691;28;20037;-47
2022/08/24 07:27:46;;;;;;;63.35;56.65;;;21.10;99.90;;;;;;5070922;28;19970;-47
2022/08/24 07:30:12;;;;;;;61.80;55.42;;;21.20;99.90;;;;;;5069951;28;20051;-47
2022/08/24 07:32:38;;;;;;;64.05;57.05;;;21.30;99.90;;;;;;5070135;28;20541;-47
2022/08/24 07:35:04;;;;;;;;;;;21.40;99.90;;;;;;5070492;28;20169;-48
2022/08/24 07:37:30;;;;;;;55.30;49.40;;;21.50;99.90;;;;;;5070265;28;20389;-47
2022/08/24 07:39:55;;;;;;;;;;;21.60;99.90;;;;;;5070556;28;20036;-48
2022/08/24 07:42:22;;;;;;;56.22;50.38;;;21.80;99.90;;;;;;5070395;28;19916;-49
2022/08/24 07:44:47;;;;;;;52.90;47.65;;;21.90;99.90;;;;;;5069811;28;20044;-48
2022/08/24 07:47:13;;;;;;;;;;;22.00;99.90;;;;;;5065328;28;20178;-48
2022/08/24 07:49:40;;;;;;;69.13;41.25;;;22.10;99.90;;;;;;5070409;28;19920;-48
2022/08/24 07:52:05;;;;;;;44.30;39.85;;;22.20;99.90;;;;;;5062619;28;20033;-47
2022/08/24 07:54:31;;;;;;;;;;;22.20;99.90;;;;;;5050402;28;20032;-48
2022/08/24 07:56:58;;;;;;;70.35;39.13;;;22.30;99.90;;;;;;5068197;28;19924;-48
2022/08/24 07:59:24;;;;;;;44.47;40.05;;;22.40;99.90;;;;;;5070109;28;20428;-48
2022/08/24 08:01:51;;;;;;;;;;;22.40;99.90;;;;;;5070037;28;20117;-47
2022/08/24 08:04:20;;;;;;;39.17;34.97;;;22.50;99.90;;;;;;5069940;28;20326;-47
2022/08/24 08:06:46;;;;;;;39.63;33.15;;;22.60;99.90;;;;;;5069541;28;20273;-48
2022/08/24 08:09:11;;;;;;;;;;;22.80;99.90;;;;;;5070620;28;20371;-48
2022/08/24 08:11:37;;;;;;;24.13;20.95;;;22.90;99.90;;;;;;5070127;28;19920;-45
2022/08/24 08:14:03;;;;;;;32.97;29.38;;;23.00;99.90;;;;;;5069846;28;20075;-46
2022/08/24 08:16:28;;;;;;;32.75;29.05;;;23.10;99.90;;;;;;5069377;28;20036;-45
2022/08/24 08:18:54;;;;;;;;;;;23.10;99.90;;;;;;5070427;28;20039;-45
2022/08/24 08:24:14;;;;;;;35.13;31.27;;;23.30;99.90;;;;;;5069541;28;20048;-48
2022/08/24 08:26:40;;;;;;;37.10;33.45;;;23.50;99.90;;;;;;5069800;28;20043;-48
2022/08/24 08:29:07;;;;;;;44.17;35.65;;;23.60;99.90;;;;;;5069884;28;20040;-49
2022/08/24 08:31:32;;;;;;;36.17;32.58;;;23.70;99.90;;;;;;5069922;28;20041;-48
2022/08/24 08:33:58;;;;;;;34.05;30.30;;;23.80;99.90;;;;;;5069511;28;20386;-48
2022/08/24 08:36:24;;;;;;;35.50;31.30;;;23.90;99.90;;;;;;5069747;28;20043;-48
2022/08/24 08:38:50;;;;;;;36.15;29.67;;;24.10;99.90;;;;;;5070019;28;20195;-48
2022/08/24 08:41:18;;;;;;;31.27;27.92;;;24.10;99.90;;;;;;5069626;28;20167;-47
2022/08/24 08:43:59;;;;;;;31.23;27.88;;;24.20;99.90;;;;;;5069253;28;20113;-47
2022/08/24 08:46:53;;;;;;;27.98;24.95;;;24.30;99.90;;;;;;5069606;28;20446;-48
2022/08/24 08:49:36;;;;;;;22.23;19.92;;;24.40;99.90;;;;;;5069862;28;20045;-47
2022/08/24 08:52:32;;;;;;;24.23;20.05;;;24.40;99.90;;;;;;5073237;28;20044;-47
2022/08/24 08:55:26;;;;;;;21.75;19.42;;;24.60;99.90;;;;;;5073110;28;20036;-47
2022/08/24 08:58:03;;;;;;;25.52;19.67;;;24.70;99.60;;;;;;5073131;28;20044;-48
2022/08/24 09:00:56;;;;;;;20.23;16.50;;;24.80;99.50;;;;;;5073405;28;20075;-48
2022/08/24 09:03:31;;;;;;;19.83;17.42;;;24.80;99.10;;;;;;5066538;28;20052;-48
2022/08/24 09:06:30;;;;;;;20.40;16.48;;;24.90;99.10;;;;;;5073130;28;20093;-48
2022/08/24 09:09:28;;;;;;;14.52;13.02;;;24.90;99.00;;;;;;5073362;28;20127;-49
2022/08/24 09:11:53;;;;;;;18.63;15.10;;;25.10;98.70;;;;;;5035172;28;20075;-47
2022/08/24 09:14:34;;;;;;;15.38;13.88;;;25.20;98.70;;;;;;5072558;28;20505;-48
2022/08/24 09:17:17;;;;;;;15.60;13.90;;;25.20;98.10;;;;;;5072647;28;20048;-47
2022/08/24 09:20:04;;;;;;;17.13;12.68;;;25.30;97.90;;;;;;5072444;28;20048;-46
2022/08/24 09:22:46;;;;;;;15.65;12.60;;;25.40;98.10;;;;;;5072625;28;20044;-46
2022/08/24 09:25:28;;;;;;;15.00;13.40;;;25.40;97.90;;;;;;5068977;28;20043;-48
2022/08/24 09:28:13;;;;;;;12.55;10.75;;;25.40;98.00;;;;;;5070765;28;20037;-48
2022/08/24 09:31:10;;;;;;;12.77;8.70;;;25.50;97.20;;;;;;5072710;28;20087;-46
2022/08/24 09:34:06;;;;;;;15.55;9.95;;;25.50;97.70;;;;;;5009515;28;20041;-47
2022/08/24 09:36:45;;;;;;;13.00;10.27;;;25.60;97.70;;;;;;5009915;28;20077;-47
2022/08/24 09:39:30;;;;;;;12.73;9.75;;;25.70;97.00;;;;;;5010341;28;20050;-49
2022/08/24 09:42:33;;;;;;;15.15;10.57;;;25.70;97.00;;;;;;5009754;28;20504;-48
2022/08/24 09:45:12;;;;;;;12.18;9.13;;;25.70;96.90;;;;;;5010007;28;20046;-48
2022/08/24 09:48:03;;;;;;;12.82;8.95;;;25.80;96.70;;;;;;5009191;28;20038;-48
2022/08/24 09:51:08;;;;;;;12.52;9.35;;;25.80;96.70;;;;;;5009631;28;20078;-48
2022/08/24 09:53:39;;;;;;;11.60;8.82;;;25.90;96.20;;;;;;5006558;28;20176;-48
2022/08/24 09:56:35;;;;;;;18.77;9.68;;;26.00;96.40;;;;;;5009340;28;20041;-46
2022/08/24 09:59:28;;;;;;;14.60;10.50;;;26.00;95.70;;;;;;5007820;28;20045;-48
2022/08/24 10:02:32;;;;;;;16.30;12.55;;;26.10;95.30;;;;;;5008212;28;20168;-46
2022/08/24 10:05:32;;;;;;;20.38;10.07;;;26.10;95.30;;;;;;5008420;28;20088;-48
2022/08/24 10:08:18;;;;;;;17.58;10.23;;;26.20;95.00;;;;;;5009485;28;20054;-46
2022/08/24 10:11:04;;;;;;;9.20;8.30;;;26.20;95.30;;;;;;5047421;28;20498;-47
2022/08/24 10:13:57;;;;;;;17.45;9.07;;;26.30;95.00;;;;;;5071522;28;20279;-49
2022/08/24 10:16:48;;;;;;;11.95;10.55;;;26.40;95.00;;;;;;5071987;28;20048;-48
2022/08/24 10:19:44;;;;;;;10.40;7.97;;;26.50;94.80;;;;;;5071590;28;20155;-47
2022/08/24 10:22:25;;;;;;;8.63;7.72;;;26.50;95.00;;;;;;5071727;28;20113;-47
2022/08/24 10:25:05;;;;;;;10.98;7.47;;;26.60;94.30;;;;;;5071524;28;20588;-48
2022/08/24 10:27:45;;;;;;;8.35;7.60;;;26.70;94.40;;;;;;5071361;28;20743;-47
2022/08/24 10:30:48;;;;;;;10.98;6.32;;;26.70;94.20;;;;;;5071822;28;20036;-48
2022/08/24 10:33:21;;;;;;;7.47;5.47;;;26.80;93.80;;;;;;5071133;28;20042;-49
2022/08/24 10:36:02;;;;;;;8.98;6.35;;;26.80;94.10;;;;;;5071724;28;20033;-46
2022/08/24 10:41:51;;;;;;;7.37;6.60;;;27.00;93.60;;;;;;5071487;28;20083;-47
2022/08/24 10:44:29;;;;;;;11.23;6.07;;;27.10;92.70;;;;;;5070958;28;20072;-49
2022/08/24 10:47:22;;;;;;;9.57;6.47;;;27.10;93.00;;;;;;5071296;28;20036;-48
2022/08/24 10:50:12;;;;;;;14.15;5.68;;;27.20;92.80;;;;;;5063015;28;20052;-47
2022/08/24 10:53:12;;;;;;;6.10;3.45;;;27.20;92.60;;;;;;5070798;28;20475;-47
2022/08/24 10:55:38;;;;;;;3.47;3.17;;;27.30;92.50;;;;;;5071059;28;20040;-48
2022/08/24 10:58:34;;;;;;;12.32;3.30;;;27.30;92.80;;;;;;5071234;28;20037;-49
2022/08/24 11:01:20;;;;;;;3.72;2.78;;;27.30;92.70;;;;;;5070949;28;20054;-47
2022/08/24 11:03:51;;;;;;;6.18;2.67;;;27.40;92.00;;;;;;5070665;28;20090;-48
2022/08/24 11:06:18;;;;;;;5.05;2.72;;;27.40;92.40;;;;;;5070806;28;20048;-47
2022/08/24 11:08:54;;;;;;;5.25;3.20;;;27.50;92.60;;;;;;5070778;28;20155;-47
2022/08/24 11:11:32;;;;;;;5.68;2.63;;;27.50;91.90;;;;;;5070321;28;20130;-48
2022/08/24 11:14:08;;;;;;;5.78;1.73;;;27.60;92.00;;;;;;5069616;28;20051;-47
2022/08/24 11:16:42;;;;;;;5.18;2.50;;;27.60;92.00;;;;;;5070538;28;20036;-47
2022/08/24 11:19:32;;;;;;;3.00;1.90;;;27.70;91.60;;;;;;5070384;28;20036;-47
2022/08/24 11:22:02;;;;;;;5.82;1.67;;;27.70;91.90;;;;;;5061984;28;20273;-47
2022/08/24 11:24:51;;;;;;;3.53;1.90;;;27.70;91.60;;;;;;5070103;28;20047;-48
2022/08/24 11:27:16;;;;;;;1.33;0.43;;;27.70;91.40;;;;;;5070677;28;20119;-47
2022/08/24 11:29:51;;;;;;;2.10;0.40;;;27.80;91.10;;;;;;5070258;28;20155;-48
2022/08/24 11:32:29;;;;;;;1.70;0.40;;;27.90;90.90;;;;;;5070058;28;20043;-47
2022/08/24 11:34:59;;;;;;;1.33;0.40;;;28.00;91.00;;;;;;5069366;28;20044;-49
2022/08/24 11:37:34;;;;;;;1.80;0.32;;;28.10;90.60;;;;;;5070560;28;20071;-48
2022/08/24 11:40:00;;;;;;;1.00;0.20;;;28.20;90.10;;;;;;5069172;28;20525;-48
2022/08/24 11:43:01;;;;;;;0.75;0.40;;;28.20;90.30;;;;;;5069396;28;20089;-47
2022/08/24 11:45:51;;;;;;;3.33;0.40;;;28.20;89.00;;;;;;5068917;28;20119;-48
2022/08/24 11:48:31;;;;;;;1.95;0.40;;;28.20;88.80;;;;;;5070144;28;20460;-48
2022/08/24 11:51:07;;;;;;;2.58;0.40;;;28.30;89.30;;;;;;5069685;28;20048;-48
2022/08/24 11:54:04;;;;;;;0.98;0.30;;;28.30;88.90;;;;;;5070300;28;20045;-47
2022/08/24 11:56:29;;;;;;;2.55;0.28;;;28.40;89.00;;;;;;5069366;28;20497;-48
2022/08/24 11:59:32;;;;;;;2.90;0.45;;;28.50;88.60;;;;;;5070120;28;20116;-47
2022/08/24 12:02:03;;;;;;;2.72;0.30;;;28.50;88.20;;;;;;5059287;28;20517;-48
2022/08/24 12:04:45;;;;;;;3.92;0.60;;;28.60;87.50;;;;;;5069985;28;20029;-48
2022/08/24 12:07:24;;;;;;;2.33;0.30;;;28.60;85.90;;;;;;5070187;28;20518;-49
2022/08/24 12:10:29;;;;;;;1.25;0.32;;;28.60;85.80;;;;;;5069507;28;20052;-47
2022/08/24 12:13:05;;;;;;;3.90;0.30;;;28.70;85.20;;;;;;5040694;28;20056;-47
2022/08/24 12:15:40;;;;;;;0.70;0.40;;;28.70;84.50;;;;;;5069882;28;20044;-48
2022/08/24 12:18:34;;;;;;;1.02;0.50;;;28.70;83.20;;;;;;5069536;28;20037;-48
2022/08/24 12:20:59;;;;;;;0.80;0.30;;;28.70;84.30;;;;;;5070041;28;20490;-49
2022/08/24 12:23:28;;;;;;;2.05;0.30;;;28.70;83.70;;;;;;5069770;28;20505;-49
2022/08/24 12:26:00;;;;;;;4.18;0.50;;;28.70;83.70;;;;;;5072800;28;20060;-47
2022/08/24 12:28:49;;;;;;;1.67;0.52;;;28.80;83.00;;;;;;5073790;28;20037;-48
2022/08/24 12:31:28;;;;;;;2.78;0.40;;;28.90;83.10;;;;;;5073908;28;20101;-48
2022/08/24 12:34:00;;;;;;;1.00;0.40;;;29.00;82.50;;;;;;5073859;28;20040;-48
2022/08/24 12:36:37;;;;;;;1.70;0.30;;;29.00;82.20;;;;;;5073784;28;20037;-48
2022/08/24 12:39:18;;;;;;;2.65;0.40;;;29.00;81.20;;;;;;5073067;28;20032;-48
2022/08/24 12:42:01;;;;;;;1.90;0.28;;;29.10;80.70;;;;;;5072366;28;20047;-48
2022/08/24 12:44:36;;;;;;;1.40;0.28;;;29.20;80.20;;;;;;5073045;28;20041;-48
2022/08/24 12:47:02;;;;;;;0.68;0.20;;;29.20;81.20;;;;;;5073569;28;20115;-48
2022/08/24 12:49:42;;;;;;;2.63;0.20;;;29.20;80.40;;;;;;5073292;28;20043;-48
2022/08/24 12:52:39;;;;;;;1.52;0.30;;;29.30;78.40;;;;;;5073555;28;20363;-47
2022/08/24 12:55:32;;;;;;;0.73;0.20;;;29.30;77.80;;;;;;5073318;28;20052;-48
2022/08/24 12:58:04;;;;;;;2.65;0.30;;;29.40;79.60;;;;;;5073426;28;20062;-49
2022/08/24 13:00:40;;;;;;;1.13;0.30;;;29.40;77.30;;;;;;5073410;28;20533;-47
2022/08/24 13:03:22;;;;;;;1.10;0.30;;;29.50;77.80;;;;;;5073117;28;20398;-47
2022/08/24 13:05:58;;;;;;;0.63;0.20;;;29.50;76.80;;;;;;5073115;28;20045;-48
2022/08/24 13:08:39;;;;;;;0.80;0.40;;;29.50;76.60;;;;;;5073445;28;20040;-49
2022/08/24 13:11:27;;;;;;;2.20;0.30;;;29.50;77.50;;;;;;5072978;28;20066;-47
2022/08/24 13:14:11;;;;;;;1.27;0.30;;;29.50;76.90;;;;;;5072846;28;20044;-50